sensor_id;sensor_type;location;lat;lon;timestamp;temperature;humidity
2148;DHT22;1080;48.724;9.104;2023-01-15T16:02:12;4.10;99.90
2148;DHT22;1080;48.724;9.104;2023-01-15T16:04:44;4.00;99.90
2148;DHT22;1080;48.724;9.104;2023-01-15T16:07:12;4.10;99.90
2148;DHT22;1080;48.724;9.104;2023-01-15T16:09:39;4.00;99.90
2148;DHT22;1080;48.724;9.104;2023-01-15T16:12:12;3.90;99.90
2148;DHT22;1080;48.724;9.104;2023-01-15T16:17:11;3.80;99.90
2148;DHT22;1080;48.724;9.104;2023-01-15T16:27:02;3.80;99.90
2148;DHT22;1080;48.724;9.104;2023-01-15T16:29:32;3.80;99.90
2148;DHT22;1080;48.724;9.104;2023-01-15T16:34:31;3.80;99.90
2148;DHT22;1080;48.724;9.104;2023-01-15T16:39:27;3.80;99.90
2148;DHT22;1080;48.724;9.104;2023-01-15T16:41:57;3.80;99.90
2148;DHT22;1080;48.724;9.104;2023-01-15T16:44:37;3.70;99.90
2148;DHT22;1080;48.724;9.104;2023-01-15T16:47:19;3.70;99.90
2148;DHT22;1080;48.724;9.104;2023-01-15T16:49:48;3.80;99.90
2148;DHT22;1080;48.724;9.104;2023-01-15T16:52:34;3.80;99.90
2148;DHT22;1080;48.724;9.104;2023-01-15T16:57:30;3.70;99.90
2148;DHT22;1080;48.724;9.104;2023-01-15T17:00:05;3.70;99.90
2148;DHT22;1080;48.724;9.104;2023-01-15T17:02:39;3.70;99.90
2148;DHT22;1080;48.724;9.104;2023-01-15T17:05:21;3.70;99.90
2148;DHT22;1080;48.724;9.104;2023-01-15T17:07:49;3.70;99.90
2148;DHT22;1080;48.724;9.104;2023-01-15T17:15:35;3.60;99.90
2148;DHT22;1080;48.724;9.104;2023-01-15T17:20:46;3.60;99.90
2148;DHT22;1080;48.724;9.104;2023-01-15T17:28:08;3.70;99.90
2148;DHT22;1080;48.724;9.104;2023-01-15T17:33:05;3.60;99.90
2148;DHT22;1080;48.724;9.104;2023-01-15T17:35:35;3.50;99.90
2148;DHT22;1080;48.724;9.104;2023-01-15T17:38:04;3.60;99.90
2148;DHT22;1080;48.724;9.104;2023-01-15T17:45:28;3.50;99.90
2148;DHT22;1080;48.724;9.104;2023-01-15T17:55:20;3.40;99.90
2148;DHT22;1080;48.724;9.104;2023-01-15T18:00:51;3.40;99.90
2148;DHT22;1080;48.724;9.104;2023-01-15T18:03:38;3.50;99.90
2148;DHT22;1080;48.724;9.104;2023-01-15T18:08:54;3.40;99.90
2148;DHT22;1080;48.724;9.104;2023-01-15T18:28:38;3.40;99.90
2148;DHT22;1080;48.724;9.104;2023-01-15T18:36:04;3.50;99.90
2148;DHT22;1080;48.724;9.104;2023-01-15T18:38:33;3.70;99.90
2148;DHT22;1080;48.724;9.104;2023-01-15T18:41:08;3.40;99.90
2148;DHT22;1080;48.724;9.104;2023-01-15T19:01:34;3.40;99.90
2148;DHT22;1080;48.724;9.104;2023-01-15T19:16:40;3.30;99.90
2148;DHT22;1080;48.724;9.104;2023-01-15T19:47:21;3.10;99.90
2148;DHT22;1080;48.724;9.104;2023-01-15T19:50:10;3.10;99.90
2148;DHT22;1080;48.724;9.104;2023-01-15T19:57:43;3.00;99.90
2148;DHT22;1080;48.724;9.104;2023-01-15T20:00:13;2.90;99.90
2148;DHT22;1080;48.724;9.104;2023-01-15T20:02:41;3.00;99.90
2148;DHT22;1080;48.724;9.104;2023-01-15T20:05:09;2.90;99.90
2148;DHT22;1080;48.724;9.104;2023-01-15T20:10:05;3.00;99.90
2148;DHT22;1080;48.724;9.104;2023-01-15T20:27:36;2.70;99.90
2148;DHT22;1080;48.724;9.104;2023-01-15T20:30:06;2.70;99.90
2148;DHT22;1080;48.724;9.104;2023-01-15T20:35:02;2.80;99.90
2148;DHT22;1080;48.724;9.104;2023-01-15T20:47:37;2.70;99.90
2148;DHT22;1080;48.724;9.104;2023-01-15T20:50:24;2.60;99.90
2148;DHT22;1080;48.724;9.104;2023-01-15T20:55:20;2.60;99.90
2148;DHT22;1080;48.724;9.104;2023-01-15T21:00:18;2.50;99.90
2148;DHT22;1080;48.724;9.104;2023-01-15T21:07:41;2.40;99.90
2148;DHT22;1080;48.724;9.104;2023-01-15T21:10:10;2.40;99.90
2148;DHT22;1080;48.724;9.104;2023-01-15T21:22:28;2.40;99.90
2148;DHT22;1080;48.724;9.104;2023-01-15T21:52:16;2.20;99.90
2148;DHT22;1080;48.724;9.104;2023-01-15T21:57:12;2.10;99.90
2148;DHT22;1080;48.724;9.104;2023-01-15T22:02:10;2.10;99.90
2148;DHT22;1080;48.724;9.104;2023-01-15T22:14:32;2.10;99.90
2148;DHT22;1080;48.724;9.104;2023-01-15T22:17:01;2.10;99.90
2148;DHT22;1080;48.724;9.104;2023-01-15T22:19:29;2.20;99.90
2148;DHT22;1080;48.724;9.104;2023-01-15T22:21:58;2.20;99.90
2148;DHT22;1080;48.724;9.104;2023-01-15T22:31:49;2.30;99.90
2148;DHT22;1080;48.724;9.104;2023-01-15T22:59:10;2.50;99.90
2148;DHT22;1080;48.724;9.104;2023-01-15T23:04:11;2.50;99.90
2148;DHT22;1080;48.724;9.104;2023-01-15T23:21:24;2.60;99.90
2148;DHT22;1080;48.724;9.104;2023-01-15T23:26:23;2.50;99.90
2148;DHT22;1080;48.724;9.104;2023-01-15T23:31:19;2.50;99.90
2148;DHT22;1080;48.724;9.104;2023-01-15T23:38:43;2.50;99.90
2148;DHT22;1080;48.724;9.104;2023-01-15T23:41:13;2.50;99.90
